Japan Airlines Virtual Airport Information Service

Brisbane Airport

ICAO: YBBN Country: Australia
Latitude: -27.3841 Longitude: 153.117
Latest Arrival : QFA825 (YPDN-YBBN) Latest Departure : QFA89 (YBBN-NWWW)


WX CaptureLIVE
Data provided by noaa.gov | Fetched at 14:06:00

METAR : YBBN 231330Z 23004KT 9999 FEW040 14/11 Q1019

TAF : YBBN 231107Z 2312/2418 22006KT CAVOK FM240200 07008KT 9999 FEW040 FM241000 20006KT CAVOK


Runway Data for YBBN
Data provided by openaviationdata.com

Runway ID Mag Var Hdg Length Elevation Surface ILS Freq ILS Id ILS Slope
1 11 15° 11709 ft 13 ft Asphalt 109.5 IBA 3
14 11 134° 5785 ft 13 ft Asphalt -- -- --
19 11 195° 11709 ft 13 ft Asphalt 110.1 IBS 3
32 11 314° 5785 ft 13 ft Asphalt -- -- --

Brisbane Airport, Australia
Use only for reference purposes



Not for navigational purposes.